Time;durP1;ratioP1;P1;durP2;ratioP2;P2;SDS_P1;SDS_P2;PMS_P1;PMS_P2;Temp;Humidity;BMP_temperature;BMP_pressure;BME280_temperature;BME280_humidity;BME280_pressure;Samples;Min_cycle;Max_cycle;Signal;HPM_P1;HPM_P2
2022/03/23 00:01:39;;;;;;;31.02;22.10;;;8.70;67.10;;;;;;5034455;28;20087;-81
2022/03/23 00:04:06;;;;;;;29.88;21.92;;;8.70;67.20;;;;;;5032664;28;20060;-81
2022/03/23 00:06:34;;;;;;;29.48;21.35;;;8.70;67.20;;;;;;5031571;28;20521;-81
2022/03/23 00:09:01;;;;;;;29.30;21.58;;;8.60;67.20;;;;;;5036816;28;20465;-81
2022/03/23 00:11:28;;;;;;;29.83;22.52;;;8.50;67.20;;;;;;5034758;28;20061;-81
2022/03/23 00:13:55;;;;;;;26.58;20.63;;;8.50;67.30;;;;;;5034848;28;20096;-81
2022/03/23 00:16:23;;;;;;;28.67;21.13;;;8.50;67.30;;;;;;5034488;28;20076;-81
2022/03/23 00:18:50;;;;;;;28.88;20.27;;;8.40;67.30;;;;;;5031063;28;20513;-81
2022/03/23 00:21:17;;;;;;;29.27;21.10;;;8.40;67.30;;;;;;5035058;28;20057;-81
2022/03/23 00:23:44;;;;;;;33.38;21.80;;;8.30;67.40;;;;;;5035268;28;20053;-81
2022/03/23 00:26:14;;;;;;;27.70;21.00;;;8.30;67.40;;;;;;5033552;28;20045;-81
2022/03/23 00:28:41;;;;;;;29.42;21.15;;;8.30;67.40;;;;;;5034692;28;20053;-81
2022/03/23 00:31:09;;;;;;;26.95;21.67;;;8.20;67.40;;;;;;5033076;28;20061;-81
2022/03/23 00:33:36;;;;;;;31.38;22.20;;;8.20;67.40;;;;;;5031111;28;20482;-81
2022/03/23 00:36:06;;;;;;;36.75;25.83;;;8.20;67.40;;;;;;5036540;28;20049;-81
2022/03/23 00:38:34;;;;;;;34.05;23.50;;;8.10;67.50;;;;;;5033131;28;20053;-81
2022/03/23 00:41:03;;;;;;;39.28;24.23;;;8.10;67.50;;;;;;5034383;28;20073;-81
2022/03/23 00:43:31;;;;;;;37.38;23.85;;;8.10;67.50;;;;;;5034530;28;20049;-81
2022/03/23 00:45:59;;;;;;;47.70;28.23;;;8.00;67.60;;;;;;5031912;28;20052;-81
2022/03/23 00:48:26;;;;;;;49.90;26.90;;;8.00;67.60;;;;;;5032662;28;20054;-81
2022/03/23 00:50:53;;;;;;;40.47;26.67;;;8.00;67.60;;;;;;5034336;28;20084;-80
2022/03/23 00:53:20;;;;;;;48.13;28.58;;;7.90;67.60;;;;;;5034447;28;20053;-81
2022/03/23 00:55:47;;;;;;;48.17;27.50;;;7.90;67.60;;;;;;5033337;28;20099;-81
2022/03/23 00:58:15;;;;;;;44.08;27.00;;;7.90;67.70;;;;;;5033008;28;20045;-81
2022/03/23 01:00:43;;;;;;;45.53;28.02;;;7.90;67.70;;;;;;5012883;28;20096;-81
2022/03/23 01:03:10;;;;;;;40.40;25.92;;;7.80;67.70;;;;;;5043343;28;20060;-81
2022/03/23 01:05:37;;;;;;;39.05;25.80;;;7.80;67.70;;;;;;5033205;28;20046;-81
2022/03/23 01:08:04;;;;;;;37.60;26.55;;;7.80;67.70;;;;;;5033189;28;20506;-81
2022/03/23 01:10:34;;;;;;;42.40;27.35;;;7.70;67.80;;;;;;5034260;28;20045;-80
2022/03/23 01:13:01;;;;;;;40.15;26.23;;;7.70;67.80;;;;;;5032207;28;20424;-81
2022/03/23 01:15:29;;;;;;;43.00;26.33;;;7.70;67.80;;;;;;5032540;28;20083;-80
2022/03/23 01:17:56;;;;;;;39.80;25.88;;;7.70;67.90;;;;;;5034239;28;20457;-80
2022/03/23 01:20:24;;;;;;;42.53;27.27;;;7.60;67.90;;;;;;5033198;28;20675;-80
2022/03/23 01:22:51;;;;;;;42.22;27.77;;;7.60;67.90;;;;;;5033142;28;20092;-80
2022/03/23 01:25:18;;;;;;;36.72;25.52;;;7.60;67.90;;;;;;5036722;28;20563;-81
2022/03/23 01:27:46;;;;;;;40.47;26.95;;;7.50;67.90;;;;;;5033586;28;20466;-81
2022/03/23 01:30:15;;;;;;;47.25;26.63;;;7.50;68.00;;;;;;5037309;28;20522;-80
2022/03/23 01:32:44;;;;;;;37.80;26.33;;;7.40;68.00;;;;;;5052329;28;20502;-80
2022/03/23 01:35:12;;;;;;;39.35;27.08;;;7.40;68.00;;;;;;5037708;28;20138;-80
2022/03/23 01:37:39;;;;;;;39.13;26.52;;;7.40;68.10;;;;;;5037520;28;20046;-80
2022/03/23 01:40:08;;;;;;;43.58;26.48;;;7.40;68.10;;;;;;5036267;28;20059;-81
2022/03/23 01:42:36;;;;;;;37.00;26.20;;;7.40;68.10;;;;;;5033988;28;20068;-80
2022/03/23 01:45:05;;;;;;;39.58;27.02;;;7.40;68.20;;;;;;5039218;28;20119;-80
2022/03/23 01:47:33;;;;;;;42.55;26.42;;;7.30;68.20;;;;;;5037277;28;20046;-81
2022/03/23 01:50:03;;;;;;;39.17;25.50;;;7.30;68.20;;;;;;5037480;28;20056;-80
2022/03/23 01:52:32;;;;;;;40.95;26.30;;;7.20;68.20;;;;;;5036268;28;20068;-80
2022/03/23 01:55:02;;;;;;;36.20;24.92;;;7.20;68.30;;;;;;5033701;28;20052;-80
2022/03/23 01:57:29;;;;;;;38.47;27.17;;;7.20;68.30;;;;;;5034284;28;20453;-80
2022/03/23 01:59:57;;;;;;;39.63;26.17;;;7.20;68.30;;;;;;5039288;28;20050;-80
2022/03/23 02:02:24;;;;;;;36.75;24.95;;;7.10;68.40;;;;;;5034932;28;20049;-80
2022/03/23 02:04:51;;;;;;;37.55;24.88;;;7.10;68.30;;;;;;5037309;28;20076;-80
2022/03/23 02:07:19;;;;;;;37.50;25.45;;;7.10;68.30;;;;;;5037040;28;20045;-80
2022/03/23 02:09:46;;;;;;;36.42;25.45;;;7.00;68.30;;;;;;5033173;28;20045;-81
2022/03/23 02:12:13;;;;;;;36.00;26.50;;;6.90;68.30;;;;;;5037627;28;20384;-82
2022/03/23 02:14:40;;;;;;;41.00;25.50;;;6.90;68.30;;;;;;5034976;28;20061;-81
2022/03/23 02:17:08;;;;;;;36.65;24.88;;;6.90;68.30;;;;;;5036724;28;20053;-81
2022/03/23 02:19:35;;;;;;;33.42;24.13;;;6.90;68.40;;;;;;5036621;28;20057;-81
2022/03/23 02:22:02;;;;;;;35.88;24.92;;;6.80;68.40;;;;;;5034095;28;20049;-81
2022/03/23 02:24:30;;;;;;;33.30;24.83;;;6.80;68.40;;;;;;5033940;28;20053;-81
2022/03/23 02:26:58;;;;;;;35.25;25.15;;;6.70;68.50;;;;;;5038307;28;20049;-80
2022/03/23 02:29:34;;;;;;;35.78;24.17;;;6.70;68.50;;;;;;5036443;28;20119;-80
2022/03/23 02:32:02;;;;;;;37.17;25.33;;;6.70;68.50;;;;;;5035518;28;20087;-80
2022/03/23 02:34:29;;;;;;;36.35;25.10;;;6.70;68.60;;;;;;5033229;28;20111;-80
2022/03/23 02:36:57;;;;;;;34.38;25.92;;;6.60;68.60;;;;;;5033464;28;20052;-82
2022/03/23 02:39:28;;;;;;;37.53;26.02;;;6.60;68.70;;;;;;5034713;28;20426;-82
2022/03/23 02:41:56;;;;;;;33.90;24.77;;;6.60;68.70;;;;;;5036099;28;20049;-81
2022/03/23 02:44:29;;;;;;;36.08;26.30;;;6.60;68.70;;;;;;5036455;28;20058;-81
2022/03/23 02:46:57;;;;;;;32.70;24.73;;;6.50;68.80;;;;;;5036307;28;20047;-81
2022/03/23 02:49:24;;;;;;;34.08;24.27;;;6.50;68.80;;;;;;5036194;28;20505;-80
2022/03/23 02:51:51;;;;;;;35.88;25.23;;;6.50;68.80;;;;;;5033031;28;20075;-81
2022/03/23 03:03:32;;;;;;;35.30;25.00;;;6.40;68.90;;;;;;5046849;28;20141;-80
2022/03/23 03:06:03;;;;;;;33.10;24.50;;;6.40;69.00;;;;;;5038177;28;20053;-80
2022/03/23 03:08:45;;;;;;;34.65;25.55;;;6.40;69.00;;;;;;5036062;28;20057;-80
2022/03/23 03:11:13;;;;;;;37.67;24.52;;;6.40;69.00;;;;;;5034479;28;20076;-80
2022/03/23 03:13:41;;;;;;;32.67;24.52;;;6.40;69.10;;;;;;5035902;28;20046;-80
2022/03/23 03:16:08;;;;;;;35.05;25.92;;;6.30;69.10;;;;;;5034990;28;20053;-80
2022/03/23 03:18:36;;;;;;;35.13;24.38;;;6.30;69.10;;;;;;5031967;28;20157;-80
2022/03/23 03:21:07;;;;;;;33.75;24.25;;;6.30;69.10;;;;;;5037751;28;20049;-80
2022/03/23 03:23:38;;;;;;;36.20;24.63;;;6.30;69.10;;;;;;5035675;28;20053;-80
2022/03/23 03:26:06;;;;;;;39.92;24.63;;;6.30;69.10;;;;;;5035131;28;20045;-80
2022/03/23 03:28:35;;;;;;;35.80;24.10;;;6.30;69.20;;;;;;5035502;28;20053;-80
2022/03/23 03:31:03;;;;;;;37.92;25.60;;;6.30;69.20;;;;;;5033565;28;20049;-80
2022/03/23 03:33:31;;;;;;;36.55;25.30;;;6.20;69.20;;;;;;5032406;28;20537;-80
2022/03/23 03:35:59;;;;;;;37.22;25.83;;;6.20;69.20;;;;;;5037420;28;20049;-80
2022/03/23 03:38:27;;;;;;;38.15;25.08;;;6.20;69.30;;;;;;5035327;28;20520;-80
2022/03/23 03:40:56;;;;;;;35.95;25.02;;;6.20;69.30;;;;;;5034899;28;20059;-80
2022/03/23 03:43:24;;;;;;;34.90;25.15;;;6.20;69.30;;;;;;5035221;28;20099;-80
2022/03/23 03:45:52;;;;;;;34.72;25.13;;;6.10;69.30;;;;;;5031658;28;20060;-80
2022/03/23 03:48:19;;;;;;;36.70;25.05;;;6.20;69.40;;;;;;5035114;28;20480;-80
2022/03/23 03:50:46;;;;;;;37.13;25.90;;;6.10;69.40;;;;;;5036350;28;20097;-80
2022/03/23 03:53:14;;;;;;;34.20;24.67;;;6.10;69.40;;;;;;5033750;28;20045;-80
2022/03/23 03:55:41;;;;;;;33.25;24.80;;;6.10;69.40;;;;;;5034708;28;20049;-80
2022/03/23 03:58:09;;;;;;;36.15;25.33;;;6.10;69.40;;;;;;5033940;28;20464;-80
2022/03/23 04:00:37;;;;;;;35.45;25.73;;;6.10;69.50;;;;;;5031347;28;20107;-80
2022/03/23 04:03:05;;;;;;;36.50;26.08;;;6.00;69.50;;;;;;5035863;28;20146;-80
2022/03/23 04:05:35;;;;;;;35.58;25.20;;;6.00;69.50;;;;;;5034908;28;20072;-80
2022/03/23 04:08:02;;;;;;;37.58;26.33;;;6.00;69.50;;;;;;5033514;28;20041;-80
2022/03/23 04:10:30;;;;;;;36.75;26.10;;;6.00;69.50;;;;;;5033735;28;20460;-80
2022/03/23 04:12:57;;;;;;;38.25;25.73;;;6.00;69.50;;;;;;5031246;28;20049;-80
2022/03/23 04:15:25;;;;;;;36.67;25.65;;;6.00;69.60;;;;;;5033393;28;20064;-80
2022/03/23 04:17:54;;;;;;;35.42;24.95;;;5.90;69.60;;;;;;5033512;28;20050;-80
2022/03/23 04:20:22;;;;;;;36.13;26.88;;;5.90;69.60;;;;;;5034637;28;20057;-80
2022/03/23 04:22:49;;;;;;;36.92;26.45;;;5.90;69.60;;;;;;5034374;28;20407;-80
2022/03/23 04:25:17;;;;;;;35.70;24.95;;;5.90;69.60;;;;;;5033776;28;20057;-80
2022/03/23 04:27:49;;;;;;;35.90;26.27;;;5.90;69.60;;;;;;5027746;28;20115;-80
2022/03/23 04:30:17;;;;;;;37.22;25.65;;;5.90;69.60;;;;;;5035189;28;20061;-80
2022/03/23 04:32:46;;;;;;;35.38;25.35;;;5.90;69.60;;;;;;5034261;28;20045;-79
2022/03/23 04:35:14;;;;;;;34.30;26.05;;;5.90;69.70;;;;;;5034546;28;20049;-80
2022/03/23 04:37:42;;;;;;;34.45;26.40;;;5.80;69.70;;;;;;5034260;28;20045;-80
2022/03/23 04:40:10;;;;;;;35.50;26.50;;;5.80;69.70;;;;;;5033542;28;20402;-80
2022/03/23 04:42:38;;;;;;;35.65;24.95;;;5.80;69.80;;;;;;5029536;28;20038;-81
2022/03/23 04:45:06;;;;;;;37.00;26.10;;;5.80;69.80;;;;;;5036498;28;20058;-80
2022/03/23 04:47:34;;;;;;;34.78;26.15;;;5.70;69.80;;;;;;5034369;28;20041;-81
2022/03/23 04:50:02;;;;;;;38.28;25.77;;;5.70;69.80;;;;;;5034442;28;20461;-81
2022/03/23 04:52:33;;;;;;;35.15;25.33;;;5.70;69.90;;;;;;5034100;28;20406;-80
2022/03/23 04:55:00;;;;;;;36.03;26.52;;;5.70;69.90;;;;;;5032314;28;20049;-81
2022/03/23 04:57:27;;;;;;;35.75;25.83;;;5.70;69.90;;;;;;5032221;28;20080;-81
2022/03/23 04:59:55;;;;;;;33.80;24.70;;;5.70;69.90;;;;;;5038572;28;20107;-80
2022/03/23 05:02:21;;;;;;;34.72;25.05;;;5.60;69.90;;;;;;5038418;28;20083;-81
2022/03/23 05:04:49;;;;;;;36.72;24.92;;;5.60;69.90;;;;;;5038303;28;20053;-80
2022/03/23 05:07:15;;;;;;;39.03;26.33;;;5.60;69.90;;;;;;5038061;28;20060;-81
2022/03/23 05:09:42;;;;;;;36.80;26.65;;;5.50;69.90;;;;;;5017045;28;20110;-81
2022/03/23 05:12:09;;;;;;;34.13;25.45;;;5.50;69.90;;;;;;5047126;28;20071;-81
2022/03/23 05:14:36;;;;;;;36.20;25.25;;;5.50;70.00;;;;;;5038280;28;20502;-81
2022/03/23 05:17:03;;;;;;;34.40;24.35;;;5.50;70.00;;;;;;5038074;28;20049;-80
2022/03/23 05:19:31;;;;;;;33.88;25.13;;;5.50;70.00;;;;;;5037865;28;20099;-80
2022/03/23 05:21:58;;;;;;;38.95;26.17;;;5.50;70.00;;;;;;5034172;28;20522;-80
2022/03/23 05:24:25;;;;;;;35.22;25.85;;;5.40;70.10;;;;;;5036341;28;20053;-80
2022/03/23 05:26:52;;;;;;;38.38;26.42;;;5.40;70.10;;;;;;5038548;28;20053;-80
2022/03/23 05:29:19;;;;;;;38.95;25.23;;;5.40;70.10;;;;;;5037838;28;20068;-80
2022/03/23 05:31:46;;;;;;;37.05;25.75;;;5.40;70.10;;;;;;5037832;28;20041;-80
2022/03/23 05:34:13;;;;;;;41.30;26.15;;;5.40;70.10;;;;;;5036260;28;20159;-80
2022/03/23 05:36:40;;;;;;;35.58;25.58;;;5.40;70.10;;;;;;5032042;28;20049;-80
2022/03/23 05:39:07;;;;;;;33.40;25.23;;;5.40;70.20;;;;;;5039591;28;20049;-80
2022/03/23 05:41:33;;;;;;;38.53;26.13;;;5.30;70.20;;;;;;5037597;28;20097;-81
2022/03/23 05:44:00;;;;;;;34.72;26.15;;;5.30;70.20;;;;;;5037613;28;20513;-81
2022/03/23 05:46:27;;;;;;;33.90;25.02;;;5.30;70.20;;;;;;5037483;28;20449;-81
2022/03/23 05:48:54;;;;;;;33.40;25.25;;;5.30;70.20;;;;;;5033194;28;20498;-80
2022/03/23 05:51:21;;;;;;;35.55;26.38;;;5.20;70.20;;;;;;5036254;28;20568;-80
2022/03/23 05:53:48;;;;;;;35.35;25.50;;;5.20;70.20;;;;;;5038612;28;20103;-80
2022/03/23 05:56:15;;;;;;;33.38;25.33;;;5.20;70.20;;;;;;5036032;28;20049;-80
2022/03/23 05:58:42;;;;;;;40.78;25.17;;;5.20;70.20;;;;;;5037107;28;20049;-80
2022/03/23 06:01:09;;;;;;;37.13;27.40;;;5.20;70.20;;;;;;5036469;28;20114;-80
2022/03/23 06:03:36;;;;;;;35.70;26.30;;;5.20;70.30;;;;;;5033490;28;20084;-80
2022/03/23 06:06:03;;;;;;;37.20;26.55;;;5.10;70.30;;;;;;5038782;28;20111;-80
2022/03/23 06:08:30;;;;;;;34.47;25.38;;;5.10;70.30;;;;;;5037193;28;20045;-80
2022/03/23 06:10:58;;;;;;;38.25;25.55;;;5.10;70.40;;;;;;5036754;28;20080;-80
2022/03/23 06:13:25;;;;;;;37.78;25.85;;;5.10;70.40;;;;;;5037103;28;20095;-81
2022/03/23 06:15:52;;;;;;;36.20;26.17;;;5.10;70.40;;;;;;5033797;28;20045;-80
2022/03/23 06:18:19;;;;;;;34.70;25.13;;;5.10;70.40;;;;;;5036800;28;20568;-80
2022/03/23 06:20:45;;;;;;;37.00;26.35;;;5.00;70.50;;;;;;5035121;28;20468;-80
2022/03/23 06:23:13;;;;;;;37.65;25.20;;;5.00;70.50;;;;;;5036675;28;20502;-80
2022/03/23 06:25:40;;;;;;;33.90;25.20;;;5.00;70.50;;;;;;5036837;28;20045;-80
2022/03/23 06:28:07;;;;;;;36.65;25.92;;;5.00;70.50;;;;;;5034088;28;20052;-80
2022/03/23 06:30:37;;;;;;;35.67;25.30;;;5.00;70.60;;;;;;5032002;28;20065;-80
2022/03/23 06:33:04;;;;;;;38.75;27.83;;;5.00;70.60;;;;;;5038478;28;20053;-82
2022/03/23 06:35:31;;;;;;;37.08;25.80;;;5.00;70.60;;;;;;5035329;28;20049;-81
2022/03/23 06:37:58;;;;;;;36.28;25.92;;;5.00;70.60;;;;;;5036558;28;20494;-82
2022/03/23 06:40:25;;;;;;;34.13;26.00;;;5.00;70.70;;;;;;5036429;28;20053;-81
2022/03/23 06:42:52;;;;;;;33.22;26.33;;;5.00;70.70;;;;;;5033252;28;20041;-81
2022/03/23 06:45:19;;;;;;;34.13;24.95;;;5.00;70.70;;;;;;5036450;28;20411;-81
2022/03/23 06:47:46;;;;;;;35.67;26.92;;;4.90;70.80;;;;;;5036921;28;20065;-81
2022/03/23 06:50:13;;;;;;;36.67;25.45;;;5.00;70.80;;;;;;5036330;28;20054;-81
2022/03/23 06:52:40;;;;;;;34.38;24.90;;;4.90;70.80;;;;;;5036364;28;20041;-81
2022/03/23 06:55:08;;;;;;;38.35;25.30;;;5.00;70.90;;;;;;5037180;28;20057;-80
2022/03/23 06:57:35;;;;;;;36.63;25.33;;;5.00;70.90;;;;;;5032422;28;20119;-81
2022/03/23 07:00:12;;;;;;;37.42;24.73;;;5.00;70.90;;;;;;5037031;28;20049;-80
2022/03/23 07:02:44;;;;;;;38.65;24.83;;;5.00;71.00;;;;;;5040863;28;20466;-81
2022/03/23 07:05:13;;;;;;;33.80;25.50;;;5.00;71.00;;;;;;5035572;28;20053;-80
2022/03/23 07:10:27;;;;;;;37.60;25.67;;;5.00;71.10;;;;;;5035566;28;20059;-80
2022/03/23 07:12:55;;;;;;;36.60;25.75;;;5.00;71.20;;;;;;5032660;28;20518;-80
2022/03/23 07:15:23;;;;;;;37.05;26.27;;;5.10;71.30;;;;;;5034632;28;20045;-82
2022/03/23 07:17:51;;;;;;;37.00;27.38;;;5.10;71.40;;;;;;5036947;28;20092;-82
2022/03/23 07:20:19;;;;;;;37.05;26.40;;;5.10;71.50;;;;;;5035182;28;20045;-82
2022/03/23 07:22:46;;;;;;;40.80;28.17;;;5.20;71.50;;;;;;5035019;28;20041;-81
2022/03/23 07:25:13;;;;;;;39.67;28.15;;;5.20;71.60;;;;;;5035249;28;20056;-82
2022/03/23 07:27:39;;;;;;;39.28;27.92;;;5.20;71.70;;;;;;5031107;28;20037;-81
2022/03/23 07:30:08;;;;;;;40.05;27.48;;;5.30;71.80;;;;;;5037166;28;20053;-81
2022/03/23 07:32:36;;;;;;;39.15;27.02;;;5.30;71.90;;;;;;5033682;28;20060;-81
2022/03/23 07:35:04;;;;;;;38.95;26.95;;;5.40;72.00;;;;;;5035175;28;20061;-81
2022/03/23 07:37:31;;;;;;;48.20;27.52;;;5.40;72.10;;;;;;5035240;28;20056;-81
2022/03/23 07:39:58;;;;;;;45.78;29.38;;;5.40;72.20;;;;;;5032598;28;20092;-81
2022/03/23 07:42:30;;;;;;;43.13;29.60;;;5.50;72.30;;;;;;5032230;28;20055;-81
2022/03/23 07:44:57;;;;;;;40.92;29.35;;;5.50;72.40;;;;;;5068757;28;20103;-81
2022/03/23 07:47:24;;;;;;;38.85;27.15;;;5.60;72.60;;;;;;5033090;28;20046;-81
2022/03/23 07:49:50;;;;;;;41.97;27.83;;;5.70;72.70;;;;;;5034946;28;20053;-81
2022/03/23 07:52:18;;;;;;;36.90;27.40;;;5.70;72.80;;;;;;5034822;28;20052;-81
2022/03/23 07:54:45;;;;;;;37.80;27.23;;;5.80;72.90;;;;;;5030608;28;20050;-81
2022/03/23 07:57:13;;;;;;;40.17;29.05;;;5.90;72.90;;;;;;5036351;28;20055;-81
2022/03/23 07:59:40;;;;;;;36.35;27.60;;;5.90;73.00;;;;;;5032387;28;20049;-80
2022/03/23 08:02:08;;;;;;;42.15;29.38;;;6.00;73.00;;;;;;5034297;28;20111;-81
2022/03/23 08:04:35;;;;;;;40.10;28.17;;;6.10;73.00;;;;;;5034801;28;20136;-80
2022/03/23 08:07:03;;;;;;;39.65;29.05;;;6.20;73.10;;;;;;5032872;28;20300;-80
2022/03/23 08:09:30;;;;;;;41.22;29.35;;;6.30;73.10;;;;;;5031996;28;20103;-80
2022/03/23 08:11:58;;;;;;;41.92;30.08;;;6.40;73.20;;;;;;5036836;28;20053;-80
2022/03/23 08:14:25;;;;;;;48.67;30.13;;;6.40;73.20;;;;;;5034630;28;20052;-81
2022/03/23 08:16:53;;;;;;;41.58;30.33;;;6.60;73.30;;;;;;5034521;28;20472;-80
2022/03/23 08:19:22;;;;;;;41.55;29.48;;;6.70;73.30;;;;;;5034578;28;20053;-80
2022/03/23 08:21:53;;;;;;;44.10;30.25;;;6.90;73.40;;;;;;5031034;28;20877;-80
2022/03/23 08:24:20;;;;;;;41.50;29.38;;;7.00;73.50;;;;;;5033014;28;20049;-80
2022/03/23 08:26:48;;;;;;;38.63;28.17;;;7.10;73.50;;;;;;5034477;28;20076;-80
2022/03/23 08:29:15;;;;;;;39.67;28.00;;;7.30;73.50;;;;;;5033991;28;20057;-80
2022/03/23 08:31:42;;;;;;;40.80;27.17;;;7.40;73.50;;;;;;5033122;28;20065;-80
2022/03/23 08:34:09;;;;;;;38.92;27.70;;;7.50;73.60;;;;;;5037671;28;20077;-81
2022/03/23 08:36:37;;;;;;;42.80;27.77;;;7.70;73.50;;;;;;5033916;28;20049;-80
2022/03/23 08:39:05;;;;;;;37.45;26.58;;;7.90;73.30;;;;;;5072673;28;20154;-80
2022/03/23 08:41:34;;;;;;;40.10;24.73;;;8.00;73.00;;;;;;5038332;28;20077;-79
2022/03/23 08:44:01;;;;;;;37.90;26.17;;;8.20;72.70;;;;;;5038179;28;20395;-80
2022/03/23 08:46:28;;;;;;;36.30;25.50;;;8.40;72.40;;;;;;5038466;28;20045;-80
2022/03/23 08:48:55;;;;;;;34.03;25.65;;;8.60;72.10;;;;;;5035410;28;20073;-80
2022/03/23 08:51:22;;;;;;;35.95;24.38;;;8.70;71.60;;;;;;5037482;28;20053;-80
2022/03/23 08:53:49;;;;;;;33.10;23.38;;;8.90;71.20;;;;;;5038523;28;20046;-80
2022/03/23 08:56:16;;;;;;;32.55;23.27;;;9.00;70.80;;;;;;5036891;28;20049;-80
2022/03/23 08:58:49;;;;;;;30.95;23.08;;;9.20;70.50;;;;;;5037861;28;20111;-80
2022/03/23 09:01:16;;;;;;;30.80;22.20;;;9.40;70.10;;;;;;5036931;28;20049;-80
2022/03/23 09:03:44;;;;;;;30.42;22.00;;;9.50;69.70;;;;;;5032510;28;20073;-80
2022/03/23 09:06:12;;;;;;;30.67;22.42;;;9.70;69.30;;;;;;5039683;28;20409;-80
2022/03/23 09:08:39;;;;;;;30.83;21.83;;;9.90;68.90;;;;;;5035408;28;20045;-80
2022/03/23 09:11:05;;;;;;;30.35;22.20;;;10.00;68.60;;;;;;5037980;28;20049;-80
2022/03/23 09:13:32;;;;;;;29.00;21.45;;;10.20;68.20;;;;;;5037667;28;20044;-80
2022/03/23 09:16:00;;;;;;;33.63;21.90;;;10.30;67.80;;;;;;5035578;28;20468;-80
2022/03/23 09:18:28;;;;;;;25.67;20.35;;;10.40;67.40;;;;;;5035626;28;20054;-80
2022/03/23 09:20:56;;;;;;;26.98;19.88;;;10.50;67.10;;;;;;5037804;28;20132;-80
2022/03/23 09:23:30;;;;;;;;;;;10.70;66.80;;;;;;5038005;28;20532;-80
2022/03/23 09:25:58;;;;;;;26.30;19.70;;;10.90;66.40;;;;;;5037720;28;19990;-80
2022/03/23 09:28:25;;;;;;;25.55;19.02;;;11.00;66.10;;;;;;5037352;28;20052;-80
2022/03/23 09:30:52;;;;;;;26.83;19.23;;;11.10;65.80;;;;;;5034001;28;20472;-80
2022/03/23 09:33:19;;;;;;;25.10;19.98;;;11.30;65.50;;;;;;5037491;28;20046;-80
2022/03/23 09:35:46;;;;;;;26.30;19.92;;;11.40;65.20;;;;;;5036129;28;20050;-80
2022/03/23 09:38:13;;;;;;;26.67;20.35;;;11.50;64.90;;;;;;5037512;28;20049;-80
2022/03/23 09:40:41;;;;;;;25.95;18.73;;;11.70;64.60;;;;;;5037311;28;20045;-80
2022/03/23 09:43:09;;;;;;;25.88;18.38;;;11.90;64.30;;;;;;5035950;28;20045;-80
2022/03/23 09:48:11;;;;;;;23.02;18.67;;;12.10;63.80;;;;;;5039278;28;20077;-80
2022/03/23 09:50:42;;;;;;;24.27;19.48;;;12.30;63.50;;;;;;5037237;28;20049;-80
2022/03/23 09:53:09;;;;;;;23.40;18.08;;;12.40;63.30;;;;;;5036251;28;20453;-80
2022/03/23 09:55:37;;;;;;;21.85;17.50;;;12.50;63.00;;;;;;5037397;28;20107;-80
2022/03/23 09:58:06;;;;;;;25.08;17.65;;;12.70;62.60;;;;;;5035272;28;20056;-80
2022/03/23 10:00:42;;;;;;;22.33;16.90;;;12.80;62.30;;;;;;5033999;28;20042;-80
2022/03/23 10:03:12;;;;;;;23.65;17.77;;;13.00;61.90;;;;;;5035989;28;20073;-80
2022/03/23 10:06:19;;;;;;;26.13;17.90;;;13.10;61.60;;;;;;5036766;28;20060;-80
2022/03/23 10:09:05;;;;;;;25.65;17.73;;;13.40;61.30;;;;;;5037662;28;20045;-80
2022/03/23 10:12:09;;;;;;;21.02;16.75;;;13.50;60.90;;;;;;5036416;28;20579;-80
2022/03/23 10:14:47;;;;;;;24.63;16.80;;;13.60;60.50;;;;;;5037019;28;20498;-83
2022/03/23 10:18:01;;;;;;;24.67;17.73;;;13.90;60.20;;;;;;5035651;28;20053;-83
2022/03/23 10:20:28;;;;;;;20.73;15.45;;;13.90;59.90;;;;;;5036790;28;20057;-83
2022/03/23 10:22:55;;;;;;;24.20;17.63;;;14.10;59.70;;;;;;5035340;28;20091;-82
2022/03/23 10:25:26;;;;;;;22.90;16.50;;;14.30;59.40;;;;;;5036273;28;20111;-82
2022/03/23 10:27:55;;;;;;;22.75;16.25;;;14.40;59.20;;;;;;5032638;28;20091;-82
2022/03/23 10:30:36;;;;;;;22.45;16.20;;;14.50;58.80;;;;;;5035809;28;20080;-82
2022/03/23 10:33:15;;;;;;;21.73;16.65;;;14.60;58.50;;;;;;5037664;28;20592;-82
2022/03/23 10:35:42;;;;;;;19.73;15.27;;;14.80;58.30;;;;;;5035632;28;20409;-82
2022/03/23 10:38:12;;;;;;;21.73;15.77;;;14.90;58.00;;;;;;5036613;28;20042;-82
2022/03/23 10:40:40;;;;;;;23.20;15.20;;;15.00;57.70;;;;;;5036184;28;20053;-82
2022/03/23 10:43:08;;;;;;;21.90;14.60;;;15.10;57.40;;;;;;5035246;28;20056;-82
2022/03/23 10:45:35;;;;;;;19.08;14.95;;;15.30;57.00;;;;;;5032930;28;20042;-83
2022/03/23 10:48:14;;;;;;;20.40;14.60;;;15.40;56.70;;;;;;5038321;28;20041;-82
2022/03/23 10:50:52;;;;;;;18.40;13.80;;;15.50;56.20;;;;;;5037071;28;20053;-82
2022/03/23 10:53:40;;;;;;;28.75;13.80;;;15.60;55.90;;;;;;5036221;28;20049;-82
2022/03/23 10:56:07;;;;;;;17.08;12.85;;;15.60;55.50;;;;;;5034798;28;20099;-82
2022/03/23 10:58:40;;;;;;;21.08;14.02;;;15.80;55.20;;;;;;5036264;28;20045;-83
2022/03/23 11:01:09;;;;;;;19.35;12.95;;;15.90;54.90;;;;;;5033733;28;20053;-82
2022/03/23 11:03:47;;;;;;;17.52;13.82;;;15.90;54.80;;;;;;5032378;28;20100;-82
2022/03/23 11:06:17;;;;;;;20.88;13.05;;;16.00;54.50;;;;;;5045802;28;20053;-82
2022/03/23 11:08:44;;;;;;;17.85;12.82;;;16.10;54.30;;;;;;5066947;28;20057;-83
2022/03/23 11:16:49;;;;;;;14.70;11.05;;;16.40;53.50;;;;;;5035686;28;20472;-82
2022/03/23 11:19:19;;;;;;;17.80;11.15;;;16.40;53.30;;;;;;5034593;28;20041;-84
2022/03/23 11:22:06;;;;;;;13.68;10.85;;;16.50;53.00;;;;;;5018350;28;20536;-83
2022/03/23 11:24:45;;;;;;;16.25;10.32;;;16.60;52.70;;;;;;5031005;28;20481;-83
2022/03/23 11:27:17;;;;;;;13.35;9.68;;;16.70;52.40;;;;;;5049220;28;20579;-84
2022/03/23 11:29:48;;;;;;;12.95;9.60;;;16.80;52.10;;;;;;5034765;28;20053;-84
2022/03/23 11:32:24;;;;;;;15.57;9.20;;;16.80;51.80;;;;;;5035506;28;20184;-84
2022/03/23 11:34:51;;;;;;;15.43;9.15;;;16.90;51.50;;;;;;5035481;28;20042;-83
2022/03/23 11:37:21;;;;;;;14.75;9.60;;;16.90;51.20;;;;;;5035453;28;20055;-84
2022/03/23 11:39:50;;;;;;;17.83;9.35;;;17.00;50.80;;;;;;5031377;28;20096;-83
2022/03/23 11:42:19;;;;;;;11.15;8.45;;;17.10;50.70;;;;;;5034455;28;20054;-83
2022/03/23 11:44:54;;;;;;;16.90;9.02;;;17.10;50.50;;;;;;5035933;28;20095;-84
2022/03/23 11:47:25;;;;;;;15.27;8.73;;;17.20;50.30;;;;;;5035166;28;20053;-84
2022/03/23 11:50:02;;;;;;;12.85;8.93;;;17.30;50.10;;;;;;5035291;28;20502;-83
2022/03/23 11:52:57;;;;;;;15.73;8.57;;;17.30;49.90;;;;;;5034774;28;20494;-83
2022/03/23 11:55:37;;;;;;;13.38;8.05;;;17.40;49.60;;;;;;5035083;28;20126;-83
2022/03/23 11:58:37;;;;;;;11.40;7.93;;;17.50;49.40;;;;;;5033480;28;20510;-83
2022/03/23 12:01:12;;;;;;;10.20;7.57;;;17.60;49.00;;;;;;5020622;28;21499;-83
2022/03/23 12:04:01;;;;;;;10.60;7.35;;;17.70;48.60;;;;;;5031121;28;20042;-83
2022/03/23 12:06:39;;;;;;;11.30;7.63;;;17.70;48.40;;;;;;5044732;28;20053;-83
2022/03/23 12:09:06;;;;;;;11.60;7.70;;;17.80;48.20;;;;;;5036399;28;20049;-83
2022/03/23 12:11:37;;;;;;;12.35;7.45;;;17.90;48.00;;;;;;5033599;28;20095;-83
2022/03/23 12:14:26;;;;;;;11.00;8.15;;;17.90;47.70;;;;;;5034828;28;20132;-83
2022/03/23 12:16:53;;;;;;;9.35;7.43;;;18.00;47.50;;;;;;5030889;28;20568;-83
2022/03/23 12:20:00;;;;;;;11.18;7.10;;;18.10;47.30;;;;;;5034657;28;20045;-83
2022/03/23 12:23:01;;;;;;;10.10;6.68;;;18.20;47.00;;;;;;5034260;28;20083;-83
2022/03/23 12:25:52;;;;;;;9.82;7.10;;;18.30;46.80;;;;;;5033478;28;20106;-83
2022/03/23 12:28:29;;;;;;;9.75;6.55;;;18.40;46.60;;;;;;5034759;28;20099;-83
2022/03/23 12:30:55;;;;;;;9.68;6.68;;;18.40;46.40;;;;;;5031864;28;20099;-83
2022/03/23 12:33:27;;;;;;;9.32;6.32;;;18.50;46.20;;;;;;5032866;28;20079;-83
2022/03/23 12:36:02;;;;;;;10.80;6.63;;;18.60;46.00;;;;;;5034269;28;20115;-83
2022/03/23 12:38:30;;;;;;;9.80;6.78;;;18.70;45.80;;;;;;5034754;28;20469;-83
2022/03/23 12:41:03;;;;;;;12.98;6.30;;;18.70;45.60;;;;;;5034531;28;20045;-83
2022/03/23 12:43:43;;;;;;;9.57;6.43;;;18.80;45.40;;;;;;5034564;28;20049;-83
2022/03/23 12:46:26;;;;;;;10.07;6.65;;;18.90;45.20;;;;;;5033859;28;20045;-83
2022/03/23 13:00:28;;;;;;;8.32;6.00;;;19.20;44.00;;;;;;5044070;28;20057;-83
2022/03/23 13:03:01;;;;;;;8.95;5.95;;;19.20;43.70;;;;;;5034432;28;20399;-84
2022/03/23 13:05:28;;;;;;;13.25;6.25;;;19.30;43.50;;;;;;5032777;28;20048;-83
2022/03/23 13:07:55;;;;;;;9.10;6.25;;;19.30;43.40;;;;;;5033272;28;20107;-83
2022/03/23 13:10:24;;;;;;;10.65;5.90;;;19.40;43.20;;;;;;5034423;28;20053;-83
2022/03/23 13:13:07;;;;;;;10.77;5.65;;;19.40;43.00;;;;;;5030916;28;20099;-84
2022/03/23 13:15:34;;;;;;;8.63;6.43;;;19.50;42.80;;;;;;5031082;28;20054;-83
2022/03/23 13:18:01;;;;;;;10.82;6.28;;;19.50;42.70;;;;;;5036184;28;20103;-83
2022/03/23 13:20:31;;;;;;;8.35;6.10;;;19.60;42.60;;;;;;5036467;28;20081;-84